Time;durP1;ratioP1;P1;durP2;ratioP2;P2;SDS_P1;SDS_P2;PMS_P1;PMS_P2;Temp;Humidity;BMP_temperature;BMP_pressure;BME280_temperature;BME280_humidity;BME280_pressure;Samples;Min_cycle;Max_cycle;Signal;HPM_P1;HPM_P2
2021/12/08 00:00:39;;;;;;;9.98;3.55;;;8.10;71.00;;;;;;5026818;28;20077;-74
2021/12/08 00:03:07;;;;;;;8.00;2.33;;;8.00;70.90;;;;;;5027114;28;20041;-73
2021/12/08 00:05:33;;;;;;;10.20;2.63;;;8.10;71.00;;;;;;5027381;28;20069;-74
2021/12/08 00:08:00;;;;;;;7.07;1.85;;;8.10;71.10;;;;;;5027053;28;20060;-73
2021/12/08 00:13:07;;;;;;;6.32;2.17;;;8.00;70.90;;;;;;5026781;28;20025;-74
2021/12/08 00:15:37;;;;;;;8.13;2.47;;;8.00;70.90;;;;;;5027316;28;20431;-72
2021/12/08 00:18:05;;;;;;;9.07;2.05;;;8.00;70.90;;;;;;5026785;28;20103;-73
2021/12/08 00:20:32;;;;;;;5.22;1.52;;;8.00;70.90;;;;;;5026881;28;20436;-73
2021/12/08 00:23:00;;;;;;;6.03;1.65;;;8.00;70.90;;;;;;5026215;28;20079;-72
2021/12/08 00:25:27;;;;;;;8.63;1.85;;;8.00;70.90;;;;;;5024988;28;20045;-74
2021/12/08 00:27:53;;;;;;;9.90;2.78;;;8.10;71.10;;;;;;5026826;28;20034;-74
2021/12/08 00:30:19;;;;;;;10.25;1.85;;;8.00;70.90;;;;;;5026592;28;20378;-74
2021/12/08 00:32:46;;;;;;;8.35;2.17;;;8.00;70.90;;;;;;5026510;28;20353;-73
2021/12/08 00:35:12;;;;;;;7.20;2.05;;;8.10;71.10;;;;;;5027214;28;20030;-74
2021/12/08 00:37:39;;;;;;;10.75;2.08;;;8.00;70.90;;;;;;5026627;28;20495;-74
2021/12/08 00:40:07;;;;;;;13.82;3.20;;;8.00;70.90;;;;;;5027393;28;20085;-73
2021/12/08 00:42:36;;;;;;;10.43;1.95;;;8.00;70.80;;;;;;5026834;28;20072;-73
2021/12/08 00:45:06;;;;;;;11.15;2.60;;;8.00;70.90;;;;;;5026051;28;20033;-73
2021/12/08 00:47:32;;;;;;;9.63;2.67;;;8.00;70.90;;;;;;5025287;28;20040;-74
2021/12/08 00:49:58;;;;;;;19.08;3.83;;;8.10;71.00;;;;;;5026401;28;20041;-73
2021/12/08 00:52:29;;;;;;;9.68;2.90;;;8.00;70.80;;;;;;5026073;28;20029;-73
2021/12/08 00:54:56;;;;;;;16.17;3.42;;;8.10;71.00;;;;;;5025950;28;20382;-74
2021/12/08 00:57:22;;;;;;;12.05;2.45;;;8.10;71.00;;;;;;5008661;28;20030;-73
2021/12/08 00:59:48;;;;;;;11.32;2.85;;;8.10;70.90;;;;;;5026080;28;20516;-73
2021/12/08 01:02:14;;;;;;;13.93;3.00;;;8.10;70.90;;;;;;5026129;28;20137;-72
2021/12/08 01:04:41;;;;;;;13.38;2.90;;;8.00;70.80;;;;;;5024785;28;20415;-74
2021/12/08 01:07:07;;;;;;;15.80;3.25;;;8.10;70.90;;;;;;5025868;28;20026;-74
2021/12/08 01:09:33;;;;;;;12.93;2.88;;;8.10;70.90;;;;;;5028800;28;20037;-73
2021/12/08 01:12:02;;;;;;;13.32;2.85;;;8.10;70.80;;;;;;5032872;28;20102;-73
2021/12/08 01:14:33;;;;;;;12.10;2.63;;;8.10;70.80;;;;;;5032427;28;20037;-73
2021/12/08 01:17:01;;;;;;;13.60;3.30;;;8.10;70.70;;;;;;5032811;28;20396;-73
2021/12/08 01:19:27;;;;;;;16.02;3.60;;;8.10;70.70;;;;;;5032416;28;20060;-74
2021/12/08 01:21:55;;;;;;;16.10;2.55;;;8.20;70.80;;;;;;5033103;28;20029;-74
2021/12/08 01:24:21;;;;;;;11.15;2.97;;;8.20;70.70;;;;;;5031961;28;20048;-74
2021/12/08 01:26:48;;;;;;;15.32;3.90;;;8.20;70.60;;;;;;5031570;28;20072;-73
2021/12/08 01:29:14;;;;;;;18.13;4.15;;;8.20;70.60;;;;;;5032047;28;20029;-73
2021/12/08 01:31:42;;;;;;;19.23;3.35;;;8.20;70.50;;;;;;5032624;28;20478;-73
2021/12/08 01:34:10;;;;;;;15.70;3.17;;;8.20;70.50;;;;;;5031037;28;20083;-73
2021/12/08 01:36:36;;;;;;;14.50;3.55;;;8.20;70.40;;;;;;5032312;28;20079;-75
2021/12/08 01:39:04;;;;;;;16.15;3.30;;;8.20;70.40;;;;;;5032496;28;20041;-73
2021/12/08 01:41:31;;;;;;;16.75;4.55;;;8.20;70.40;;;;;;5032239;28;20059;-73
2021/12/08 01:46:43;;;;;;;13.38;2.95;;;8.20;70.30;;;;;;5032656;28;20025;-74
2021/12/08 01:49:09;;;;;;;18.73;4.55;;;8.20;70.30;;;;;;5032455;28;20039;-72
2021/12/08 01:51:35;;;;;;;16.75;3.15;;;8.20;70.30;;;;;;5031689;28;20033;-74
2021/12/08 01:54:02;;;;;;;18.48;3.50;;;8.20;70.30;;;;;;5032462;28;20095;-72
2021/12/08 01:56:31;;;;;;;22.00;4.00;;;8.20;70.30;;;;;;5032203;28;20060;-73
2021/12/08 01:58:57;;;;;;;16.70;3.00;;;8.20;70.30;;;;;;5032247;28;20044;-72
2021/12/08 02:01:28;;;;;;;14.98;2.92;;;8.20;70.30;;;;;;5032641;28;20230;-73
2021/12/08 02:03:55;;;;;;;16.80;3.88;;;8.10;70.20;;;;;;5032787;28;20039;-73
2021/12/08 02:06:22;;;;;;;17.23;4.57;;;8.10;70.10;;;;;;5031708;28;20273;-72
2021/12/08 02:08:51;;;;;;;15.73;3.40;;;8.10;70.10;;;;;;5031864;28;20080;-74
2021/12/08 02:11:19;;;;;;;14.43;4.25;;;8.20;70.20;;;;;;5032135;28;20040;-74
2021/12/08 02:13:46;;;;;;;11.98;3.95;;;8.10;70.60;;;;;;5031732;28;20473;-74
2021/12/08 02:16:15;;;;;;;15.43;3.00;;;8.10;70.00;;;;;;5031936;28;20030;-72
2021/12/08 02:18:44;;;;;;;11.57;3.40;;;8.10;70.00;;;;;;5031788;28;20026;-73
2021/12/08 02:21:34;;;;;;;14.75;2.80;;;8.10;69.90;;;;;;5027924;28;20029;-73
2021/12/08 02:24:04;;;;;;;12.30;2.65;;;8.10;69.90;;;;;;5029070;28;20298;-73
2021/12/08 02:26:32;;;;;;;14.73;2.35;;;8.10;69.90;;;;;;5027033;28;20477;-74
2021/12/08 02:29:01;;;;;;;23.40;5.07;;;8.10;69.80;;;;;;5029226;28;20026;-74
2021/12/08 02:47:54;;;;;;;12.52;2.42;;;8.00;69.60;;;;;;5048320;28;20025;-74
2021/12/08 02:50:34;;;;;;;13.95;4.47;;;8.00;69.60;;;;;;5033559;28;20481;-74
2021/12/08 02:53:00;;;;;;;14.85;3.90;;;8.00;69.60;;;;;;5031916;28;20051;-74
2021/12/08 02:55:28;;;;;;;15.13;3.35;;;8.00;69.60;;;;;;5031381;28;20569;-73
2021/12/08 02:57:54;;;;;;;13.07;3.05;;;8.00;69.60;;;;;;5032405;28;20029;-73
2021/12/08 03:00:25;;;;;;;12.60;2.95;;;8.00;69.60;;;;;;5032769;28;20041;-74
2021/12/08 03:02:56;;;;;;;18.25;4.65;;;8.00;69.60;;;;;;5033389;28;20048;-74
2021/12/08 03:05:22;;;;;;;15.07;3.00;;;8.00;69.50;;;;;;5032910;28;20045;-74
2021/12/08 03:07:48;;;;;;;13.15;2.78;;;8.00;69.50;;;;;;5031841;28;20025;-74
2021/12/08 03:10:17;;;;;;;14.95;2.65;;;8.00;69.40;;;;;;5031634;28;20429;-71
2021/12/08 03:12:44;;;;;;;9.05;2.80;;;8.00;69.30;;;;;;5033170;28;20056;-73
2021/12/08 03:15:11;;;;;;;10.25;2.70;;;8.10;69.40;;;;;;5030986;28;20108;-73
2021/12/08 03:17:37;;;;;;;14.80;3.10;;;8.10;69.40;;;;;;5019188;28;20026;-74
2021/12/08 03:20:08;;;;;;;13.93;3.25;;;8.10;69.40;;;;;;5029973;28;20501;-74
2021/12/08 03:22:39;;;;;;;11.77;2.60;;;8.10;69.30;;;;;;5027682;28;20687;-75
2021/12/08 03:25:09;;;;;;;10.98;2.58;;;8.10;69.30;;;;;;5019038;28;20090;-74
2021/12/08 03:27:43;;;;;;;16.67;3.17;;;8.10;69.30;;;;;;5028027;28;20022;-75
2021/12/08 03:30:21;;;;;;;18.40;3.47;;;8.10;69.20;;;;;;5012589;28;20410;-73
2021/12/08 03:32:47;;;;;;;11.20;2.53;;;8.10;69.20;;;;;;5012592;28;20026;-73
2021/12/08 03:35:17;;;;;;;10.07;2.55;;;8.00;69.00;;;;;;5012518;28;20029;-73
2021/12/08 03:37:46;;;;;;;10.20;2.90;;;8.10;69.10;;;;;;5010566;28;20045;-73
2021/12/08 03:40:21;;;;;;;12.80;3.97;;;8.10;69.00;;;;;;5011123;28;20036;-75
2021/12/08 03:42:49;;;;;;;17.58;3.17;;;8.10;69.00;;;;;;5012683;28;20124;-74
2021/12/08 03:45:26;;;;;;;13.90;2.60;;;8.10;68.90;;;;;;5012528;28;20042;-73
2021/12/08 03:48:01;;;;;;;11.52;2.55;;;8.10;68.90;;;;;;5012622;28;20030;-75
2021/12/08 03:50:29;;;;;;;8.93;2.72;;;8.10;68.90;;;;;;4995056;28;20040;-73
2021/12/08 03:52:55;;;;;;;12.93;2.58;;;8.10;68.80;;;;;;5010999;28;20401;-74
2021/12/08 03:55:22;;;;;;;9.48;2.88;;;8.10;68.80;;;;;;5012039;28;20025;-74
2021/12/08 03:57:47;;;;;;;13.68;2.95;;;8.10;68.80;;;;;;5012271;28;20080;-74
2021/12/08 04:00:19;;;;;;;11.80;2.53;;;8.10;68.80;;;;;;5011877;28;20046;-74
2021/12/08 04:02:46;;;;;;;12.30;2.95;;;8.10;68.70;;;;;;5012122;28;20400;-74
2021/12/08 04:05:18;;;;;;;14.60;3.67;;;8.10;68.70;;;;;;5011873;28;20033;-74
2021/12/08 04:07:47;;;;;;;;;;;8.10;68.70;;;;;;5012618;28;20583;-75
2021/12/08 04:10:18;;;;;;;14.32;2.92;;;8.10;69.20;;;;;;5012016;28;19956;-73
2021/12/08 04:12:51;;;;;;;12.98;2.08;;;8.00;68.50;;;;;;5012189;28;20092;-74
2021/12/08 04:15:19;;;;;;;14.07;2.38;;;8.00;68.50;;;;;;5012268;28;20489;-75
2021/12/08 04:17:49;;;;;;;14.68;3.03;;;8.00;68.50;;;;;;5012237;28;20065;-74
2021/12/08 04:20:44;;;;;;;13.57;3.20;;;8.00;68.40;;;;;;4994537;28;20034;-73
2021/12/08 04:23:13;;;;;;;13.63;2.85;;;8.00;68.40;;;;;;5009615;28;20136;-73
2021/12/08 04:25:42;;;;;;;15.98;3.33;;;8.00;68.40;;;;;;5011382;28;20037;-73
2021/12/08 04:28:12;;;;;;;15.27;3.72;;;8.00;68.30;;;;;;5010245;28;20030;-73
2021/12/08 04:30:47;;;;;;;12.30;2.70;;;8.00;68.30;;;;;;5011888;28;20176;-74
2021/12/08 04:33:13;;;;;;;14.25;2.45;;;8.00;68.30;;;;;;5011659;28;20091;-74
2021/12/08 04:35:40;;;;;;;16.33;3.47;;;8.00;68.30;;;;;;5010279;28;20428;-75
2021/12/08 04:38:11;;;;;;;17.35;3.50;;;8.00;68.30;;;;;;5010455;28;20036;-74
2021/12/08 04:43:39;;;;;;;10.13;2.70;;;8.00;68.20;;;;;;5011183;28;20092;-75
2021/12/08 04:52:10;;;;;;;13.30;3.13;;;8.00;68.20;;;;;;5011894;28;20022;-74
2021/12/08 05:08:44;;;;;;;11.68;3.95;;;7.90;68.00;;;;;;5011446;28;20367;-73
2021/12/08 05:11:16;;;;;;;16.10;3.30;;;7.90;68.00;;;;;;4993592;28;20083;-73
2021/12/08 05:13:44;;;;;;;20.20;3.88;;;7.90;68.00;;;;;;5010804;28;20076;-74
2021/12/08 05:16:11;;;;;;;17.33;3.88;;;7.90;67.90;;;;;;5011408;28;20038;-75
2021/12/08 05:18:42;;;;;;;11.07;3.00;;;7.90;67.90;;;;;;5011357;28;20056;-74
2021/12/08 05:21:29;;;;;;;12.63;2.72;;;7.90;67.80;;;;;;5010226;28;20026;-75
2021/12/08 05:24:10;;;;;;;11.60;2.53;;;7.90;67.80;;;;;;5010739;28;20517;-74
2021/12/08 05:26:38;;;;;;;13.98;2.35;;;7.90;67.70;;;;;;5010954;28;20029;-73
2021/12/08 05:29:13;;;;;;;15.38;3.13;;;7.90;67.70;;;;;;5011100;28;20085;-74
2021/12/08 05:31:39;;;;;;;16.05;3.60;;;7.90;67.60;;;;;;5011031;28;20470;-74
2021/12/08 05:34:06;;;;;;;14.23;3.22;;;8.00;67.70;;;;;;5011008;28;20037;-74
2021/12/08 05:36:32;;;;;;;16.15;3.20;;;8.00;67.60;;;;;;5011053;28;20417;-75
2021/12/08 05:38:59;;;;;;;12.77;2.90;;;8.00;67.50;;;;;;5010938;28;20120;-74
2021/12/08 05:41:30;;;;;;;17.65;3.85;;;8.10;67.50;;;;;;5011163;28;20033;-75
2021/12/08 05:43:57;;;;;;;13.25;2.95;;;8.00;67.30;;;;;;5010631;28;20478;-75
2021/12/08 05:46:26;;;;;;;15.98;3.25;;;8.00;67.30;;;;;;5011066;28;20715;-74
2021/12/08 05:48:52;;;;;;;13.45;2.83;;;8.10;67.40;;;;;;5007535;28;20096;-74
2021/12/08 05:51:27;;;;;;;10.82;3.60;;;8.10;67.30;;;;;;5007435;28;20029;-74
2021/12/08 05:53:58;;;;;;;15.13;3.28;;;8.10;67.20;;;;;;5007527;28;20850;-73
2021/12/08 05:56:25;;;;;;;11.00;2.88;;;8.10;67.10;;;;;;5009503;28;20521;-73
2021/12/08 05:58:55;;;;;;;15.20;3.40;;;8.10;67.00;;;;;;5022236;28;20033;-72
2021/12/08 06:01:27;;;;;;;18.08;4.45;;;8.10;67.00;;;;;;5031227;28;20446;-74
2021/12/08 06:03:53;;;;;;;15.10;3.70;;;8.20;67.10;;;;;;5024085;28;20500;-72
2021/12/08 06:06:21;;;;;;;16.52;3.03;;;8.20;67.00;;;;;;5010067;28;20076;-73
2021/12/08 06:08:48;;;;;;;12.98;3.53;;;8.20;66.90;;;;;;5019148;28;20845;-74
2021/12/08 06:11:16;;;;;;;10.95;2.75;;;8.20;66.90;;;;;;5028201;28;20037;-72
2021/12/08 06:13:45;;;;;;;14.18;2.40;;;8.20;66.80;;;;;;5028115;28;20037;-74
2021/12/08 06:16:13;;;;;;;21.77;4.38;;;8.20;66.80;;;;;;5029461;28;20321;-73
2021/12/08 06:18:40;;;;;;;14.57;2.90;;;8.20;66.90;;;;;;5029479;28;20046;-71
2021/12/08 06:21:14;;;;;;;19.17;3.67;;;8.20;66.70;;;;;;5029335;28;20371;-74
2021/12/08 06:23:42;;;;;;;18.15;3.15;;;8.30;66.80;;;;;;5026534;28;20029;-72
2021/12/08 06:26:10;;;;;;;21.33;3.53;;;8.30;66.70;;;;;;5022686;28;20030;-72
2021/12/08 06:28:37;;;;;;;15.30;3.92;;;8.30;66.70;;;;;;5013744;28;20030;-72
2021/12/08 06:31:05;;;;;;;19.65;4.40;;;8.30;66.60;;;;;;5011715;28;20543;-72
2021/12/08 06:33:31;;;;;;;14.65;3.45;;;8.30;66.50;;;;;;5026515;28;20517;-72
2021/12/08 06:36:05;;;;;;;16.98;3.33;;;8.30;66.50;;;;;;5009984;28;20482;-71
2021/12/08 06:38:31;;;;;;;17.17;4.00;;;8.40;66.90;;;;;;5028071;28;20491;-71
2021/12/08 06:41:04;;;;;;;18.23;3.78;;;8.50;67.20;;;;;;5028214;28;20036;-70
2021/12/08 06:43:36;;;;;;;19.20;4.07;;;8.60;67.30;;;;;;5028084;28;20044;-70
2021/12/08 06:46:05;;;;;;;15.45;3.72;;;8.70;67.40;;;;;;5028533;28;20044;-71
2021/12/08 06:48:38;;;;;;;16.73;3.50;;;8.70;67.30;;;;;;5028191;28;20022;-73
2021/12/08 06:51:15;;;;;;;19.35;4.35;;;8.80;67.40;;;;;;5028339;28;20388;-72
2021/12/08 06:53:44;;;;;;;17.75;4.28;;;8.90;68.10;;;;;;5014844;28;20168;-71
2021/12/08 06:56:20;;;;;;;22.05;4.43;;;8.90;67.50;;;;;;5009104;28;20111;-73
2021/12/08 06:58:49;;;;;;;19.40;4.60;;;9.00;67.70;;;;;;5024806;28;20033;-74
2021/12/08 07:01:37;;;;;;;13.15;2.85;;;9.10;67.80;;;;;;5027795;28;20858;-72
2021/12/08 07:07:00;;;;;;;17.48;3.30;;;9.10;67.70;;;;;;5026287;28;20541;-73
2021/12/08 07:09:52;;;;;;;17.17;3.42;;;9.10;67.60;;;;;;5019665;28;20109;-73
2021/12/08 07:12:26;;;;;;;18.52;4.18;;;9.20;67.80;;;;;;5010444;28;20080;-72
2021/12/08 07:14:59;;;;;;;20.83;3.60;;;9.10;67.50;;;;;;5027745;28;20553;-73
2021/12/08 07:17:28;;;;;;;22.35;4.53;;;9.10;67.50;;;;;;5028002;28;20036;-73
2021/12/08 07:20:14;;;;;;;14.13;3.10;;;9.10;67.50;;;;;;5013221;28;20362;-72
2021/12/08 07:22:47;;;;;;;14.98;3.67;;;9.00;67.30;;;;;;5024836;28;20358;-72
2021/12/08 07:25:16;;;;;;;16.15;3.53;;;9.10;67.50;;;;;;5027569;28;20084;-72
2021/12/08 07:27:42;;;;;;;14.15;3.08;;;9.00;67.30;;;;;;5026525;28;20030;-72
2021/12/08 07:30:17;;;;;;;14.02;2.78;;;9.10;67.40;;;;;;5027644;28;20366;-73
2021/12/08 07:32:44;;;;;;;16.40;3.58;;;9.00;67.10;;;;;;5027388;28;20026;-73
2021/12/08 07:35:17;;;;;;;12.50;3.80;;;9.00;67.10;;;;;;5027148;28;20393;-73
2021/12/08 07:37:44;;;;;;;11.02;2.53;;;9.10;67.20;;;;;;5025320;28;20029;-72
2021/12/08 07:40:23;;;;;;;14.07;2.45;;;9.00;66.90;;;;;;5025106;28;20029;-72
2021/12/08 07:42:59;;;;;;;17.80;3.85;;;9.00;66.70;;;;;;5025097;28;20116;-71
2021/12/08 07:45:32;;;;;;;11.95;3.22;;;9.10;66.90;;;;;;5025375;28;20045;-72
2021/12/08 07:48:02;;;;;;;10.10;2.13;;;9.00;66.60;;;;;;5026601;28;20113;-73
2021/12/08 07:50:34;;;;;;;15.40;3.92;;;9.00;66.50;;;;;;5027225;28;20125;-73
2021/12/08 07:53:01;;;;;;;10.00;3.00;;;9.00;66.40;;;;;;5026591;28;20021;-73
2021/12/08 07:55:32;;;;;;;15.88;2.70;;;9.00;66.40;;;;;;5027311;28;20040;-72
2021/12/08 07:58:00;;;;;;;14.32;2.75;;;9.00;66.30;;;;;;5026635;28;20032;-71
2021/12/08 08:00:36;;;;;;;11.52;2.75;;;9.00;66.20;;;;;;5026622;28;20053;-73
2021/12/08 08:03:04;;;;;;;16.77;3.25;;;9.00;66.20;;;;;;5026928;28;20040;-73
2021/12/08 08:05:32;;;;;;;12.25;2.90;;;9.00;66.10;;;;;;5027370;28;20053;-72
2021/12/08 08:08:03;;;;;;;11.63;2.65;;;9.00;66.10;;;;;;5027170;28;20095;-74
2021/12/08 08:10:32;;;;;;;17.40;4.88;;;9.00;66.00;;;;;;5027251;28;20036;-74
2021/12/08 08:13:02;;;;;;;11.13;2.97;;;9.00;66.00;;;;;;5026849;28;20029;-72
2021/12/08 08:15:31;;;;;;;11.30;3.20;;;9.00;65.90;;;;;;5027131;28;20033;-72
2021/12/08 08:18:05;;;;;;;16.27;2.88;;;9.00;65.90;;;;;;5027394;28;20034;-73
2021/12/08 08:20:36;;;;;;;14.27;2.90;;;8.90;65.70;;;;;;5024972;28;20025;-73
2021/12/08 08:23:03;;;;;;;11.88;2.53;;;9.00;65.80;;;;;;5026750;28;20030;-73
2021/12/08 08:25:34;;;;;;;11.68;2.75;;;9.00;65.70;;;;;;5025347;28;20137;-72
2021/12/08 08:28:02;;;;;;;14.48;3.35;;;9.00;65.60;;;;;;5024342;28;20025;-74
2021/12/08 08:30:33;;;;;;;12.43;2.60;;;9.00;65.50;;;;;;5025709;28;20029;-74
2021/12/08 08:32:59;;;;;;;11.40;2.42;;;9.00;65.40;;;;;;5026727;28;20051;-71
2021/12/08 08:35:36;;;;;;;18.52;2.83;;;9.10;65.50;;;;;;5026393;28;20125;-72
2021/12/08 08:38:07;;;;;;;13.10;2.95;;;9.10;65.20;;;;;;5022184;28;20048;-73
2021/12/08 08:40:43;;;;;;;18.23;4.28;;;9.10;65.20;;;;;;5019401;28;20079;-74
2021/12/08 08:43:10;;;;;;;13.77;3.03;;;9.10;65.10;;;;;;5025831;28;20061;-75
2021/12/08 08:45:42;;;;;;;10.52;2.30;;;9.10;65.00;;;;;;5026451;28;20049;-73
2021/12/08 08:48:22;;;;;;;16.58;3.75;;;9.10;64.90;;;;;;5024935;28;20033;-72
2021/12/08 08:50:57;;;;;;;12.15;3.00;;;9.20;65.00;;;;;;5023951;28;20033;-73
2021/12/08 08:53:28;;;;;;;11.82;2.00;;;9.20;64.80;;;;;;5023878;28;20021;-72
2021/12/08 08:56:00;;;;;;;11.88;2.20;;;9.20;64.80;;;;;;5025269;28;20099;-73
2021/12/08 08:58:29;;;;;;;13.32;2.63;;;9.20;64.70;;;;;;5025124;28;20560;-72
2021/12/08 09:01:14;;;;;;;10.40;2.15;;;9.20;64.50;;;;;;4990979;28;20056;-74
2021/12/08 09:03:45;;;;;;;12.50;2.22;;;9.20;64.40;;;;;;5025203;28;20096;-74
2021/12/08 09:06:19;;;;;;;13.77;2.70;;;9.30;64.50;;;;;;5026083;28;20144;-72
2021/12/08 09:08:46;;;;;;;16.25;2.30;;;9.30;64.60;;;;;;5024707;28;20033;-72
2021/12/08 09:11:30;;;;;;;7.40;2.08;;;9.30;65.30;;;;;;5025631;28;20108;-72
2021/12/08 09:14:13;;;;;;;14.30;2.95;;;9.40;65.00;;;;;;5026191;28;20026;-72
2021/12/08 09:16:48;;;;;;;11.45;2.20;;;9.50;65.00;;;;;;5010996;28;20493;-72
2021/12/08 09:19:24;;;;;;;14.68;2.45;;;9.60;65.10;;;;;;5018648;28;20065;-73
2021/12/08 09:22:00;;;;;;;11.15;2.75;;;9.60;65.00;;;;;;5006704;28;20042;-73
2021/12/08 09:24:38;;;;;;;14.05;3.65;;;9.70;65.60;;;;;;5024645;28;20528;-73
2021/12/08 09:27:08;;;;;;;10.63;2.95;;;9.70;65.00;;;;;;5025556;28;20037;-74
2021/12/08 09:29:43;;;;;;;10.23;2.65;;;9.70;64.90;;;;;;5025135;28;20033;-74
2021/12/08 09:32:20;;;;;;;12.25;2.47;;;9.70;64.80;;;;;;5028507;28;20029;-74
2021/12/08 09:34:57;;;;;;;11.68;2.95;;;9.70;64.70;;;;;;5029336;28;20416;-72
2021/12/08 09:37:36;;;;;;;13.15;3.17;;;9.70;64.60;;;;;;5027912;28;20025;-73
2021/12/08 09:40:33;;;;;;;16.70;3.47;;;9.80;64.80;;;;;;5010176;28;20033;-75
2021/12/08 09:43:15;;;;;;;12.05;3.50;;;9.80;64.60;;;;;;5023584;28;20040;-72
2021/12/08 09:45:55;;;;;;;11.35;3.00;;;9.80;64.50;;;;;;5028735;28;20037;-72
2021/12/08 09:48:26;;;;;;;16.10;3.05;;;9.90;64.60;;;;;;5029244;28;20030;-72
2021/12/08 09:50:54;;;;;;;12.93;3.60;;;9.90;64.50;;;;;;5030350;28;20120;-74
2021/12/08 09:53:20;;;;;;;8.98;2.88;;;9.90;64.40;;;;;;5029542;28;20033;-74
2021/12/08 09:55:50;;;;;;;9.38;2.42;;;9.90;64.20;;;;;;5031088;28;20060;-73
2021/12/08 09:58:16;;;;;;;9.50;3.05;;;10.00;64.30;;;;;;5011829;28;20163;-73
2021/12/08 10:00:44;;;;;;;12.75;2.58;;;10.00;64.20;;;;;;5028861;28;20045;-74
2021/12/08 10:03:13;;;;;;;11.88;2.47;;;10.00;64.10;;;;;;5029290;28;20064;-73
2021/12/08 10:05:41;;;;;;;13.73;2.97;;;10.00;64.00;;;;;;5028431;28;20076;-72
2021/12/08 10:08:09;;;;;;;9.70;2.92;;;10.10;64.00;;;;;;5027777;28;20025;-72
2021/12/08 10:10:37;;;;;;;10.60;2.60;;;10.10;63.90;;;;;;5029074;28;20480;-74
2021/12/08 10:13:04;;;;;;;11.07;2.60;;;10.10;63.80;;;;;;5029654;28;20511;-74
2021/12/08 10:15:30;;;;;;;8.73;2.05;;;10.20;63.90;;;;;;5028507;28;20022;-71
2021/12/08 10:17:58;;;;;;;12.10;2.10;;;10.20;63.70;;;;;;5029995;28;20037;-72
2021/12/08 10:20:32;;;;;;;14.93;3.83;;;10.30;63.80;;;;;;5029591;28;20033;-72
2021/12/08 10:23:16;;;;;;;10.77;2.58;;;10.40;63.80;;;;;;5029537;28;20040;-74
2021/12/08 10:26:05;;;;;;;13.45;2.70;;;10.40;63.40;;;;;;5028986;28;20049;-73
2021/12/08 10:28:46;;;;;;;10.43;2.35;;;10.50;63.40;;;;;;5024405;28;20443;-72
2021/12/08 10:31:19;;;;;;;10.63;2.58;;;10.60;63.50;;;;;;5028102;28;20030;-73
2021/12/08 10:36:47;;;;;;;12.80;3.33;;;10.70;63.40;;;;;;5028835;28;20087;-73
2021/12/08 10:39:31;;;;;;;12.98;2.97;;;10.80;63.20;;;;;;5028051;28;20037;-74
2021/12/08 10:42:02;;;;;;;15.80;2.80;;;10.80;63.20;;;;;;5027459;28;20053;-73
2021/12/08 10:47:12;;;;;;;15.07;3.00;;;10.90;63.00;;;;;;5028100;28;20037;-73
2021/12/08 10:55:12;;;;;;;8.60;2.47;;;11.00;63.00;;;;;;5027675;28;20037;-73
2021/12/08 10:57:39;;;;;;;13.38;2.38;;;11.10;63.10;;;;;;5027767;28;20496;-74
2021/12/08 11:00:10;;;;;;;11.80;2.65;;;11.10;63.00;;;;;;5028007;28;20030;-73
2021/12/08 11:02:41;;;;;;;8.48;2.65;;;11.10;62.80;;;;;;5028359;28;20041;-73
2021/12/08 11:05:26;;;;;;;11.27;2.33;;;11.20;62.90;;;;;;5018096;28;20041;-75
2021/12/08 11:08:07;;;;;;;7.57;2.17;;;11.20;62.70;;;;;;5020708;28;20044;-72
2021/12/08 11:10:38;;;;;;;16.88;3.42;;;11.20;62.70;;;;;;5027184;28;20618;-73
2021/12/08 11:13:08;;;;;;;8.90;2.50;;;11.20;62.70;;;;;;5028164;28;20489;-75
2021/12/08 11:15:35;;;;;;;13.43;3.80;;;11.20;62.60;;;;;;5028468;28;20025;-72
2021/12/08 11:18:22;;;;;;;11.68;3.95;;;11.20;62.50;;;;;;5027545;28;20041;-73
2021/12/08 11:20:58;;;;;;;7.85;2.20;;;11.20;62.30;;;;;;5028127;28;20033;-73
2021/12/08 11:26:33;;;;;;;8.50;2.80;;;11.30;62.50;;;;;;5027547;28;20100;-73
2021/12/08 11:29:05;;;;;;;5.47;1.95;;;11.30;62.30;;;;;;5027192;28;20492;-74
2021/12/08 11:31:38;;;;;;;11.82;2.60;;;11.30;62.40;;;;;;5027439;28;20033;-73
2021/12/08 11:34:14;;;;;;;7.38;1.88;;;11.30;62.30;;;;;;5026005;28;20037;-74
2021/12/08 11:36:41;;;;;;;10.23;2.75;;;11.30;62.40;;;;;;5026507;28;20029;-73
2021/12/08 11:39:17;;;;;;;10.05;2.55;;;11.40;63.00;;;;;;5027993;28;20029;-73
2021/12/08 11:41:46;;;;;;;11.15;3.35;;;11.50;63.20;;;;;;5027348;28;20057;-73
2021/12/08 11:44:20;;;;;;;7.30;1.85;;;11.60;63.20;;;;;;5027792;28;20031;-73
2021/12/08 11:46:50;;;;;;;11.88;2.65;;;11.60;63.00;;;;;;5027752;28;20037;-73
2021/12/08 11:49:17;;;;;;;12.85;2.22;;;11.60;62.90;;;;;;5021484;28;20034;-74
2021/12/08 11:51:43;;;;;;;10.20;2.95;;;11.60;62.90;;;;;;5008752;28;20088;-74
2021/12/08 11:54:26;;;;;;;8.13;2.00;;;11.60;62.80;;;;;;5022963;28;20029;-73
2021/12/08 11:57:08;;;;;;;10.65;2.60;;;11.60;62.60;;;;;;5027155;28;20040;-77
2021/12/08 11:59:43;;;;;;;10.50;2.10;;;11.60;62.70;;;;;;5027730;28;20500;-75
2021/12/08 12:02:09;;;;;;;9.18;2.33;;;11.60;62.70;;;;;;5026849;28;20045;-73
2021/12/08 12:04:36;;;;;;;12.77;4.72;;;11.60;62.60;;;;;;5024425;28;20068;-75
2021/12/08 12:07:02;;;;;;;9.32;2.50;;;11.60;62.60;;;;;;5026733;28;20037;-75
2021/12/08 12:09:28;;;;;;;8.85;3.17;;;11.60;62.50;;;;;;5027015;28;20432;-76
2021/12/08 12:11:59;;;;;;;7.35;2.55;;;11.60;62.50;;;;;;5026117;28;20033;-74
2021/12/08 12:14:28;;;;;;;11.07;3.63;;;11.60;62.40;;;;;;5025921;28;20059;-74
2021/12/08 12:16:55;;;;;;;12.88;2.70;;;11.50;62.20;;;;;;5026863;28;20030;-75
2021/12/08 12:19:24;;;;;;;10.32;2.47;;;11.50;62.20;;;;;;5026324;28;20489;-73
2021/12/08 12:22:17;;;;;;;9.35;2.67;;;11.50;62.20;;;;;;5025166;28;20041;-72
2021/12/08 12:25:01;;;;;;;11.30;2.28;;;11.40;62.00;;;;;;5021541;28;20089;-73
2021/12/08 12:27:45;;;;;;;11.80;3.03;;;11.40;62.10;;;;;;5016494;28;20026;-73
2021/12/08 12:30:22;;;;;;;9.52;2.67;;;11.30;62.10;;;;;;5005695;28;20073;-73
2021/12/08 12:32:54;;;;;;;5.97;2.25;;;11.30;62.00;;;;;;5010944;28;20021;-73
2021/12/08 12:35:29;;;;;;;12.10;3.35;;;11.30;62.00;;;;;;5026745;28;20478;-73
2021/12/08 12:38:11;;;;;;;10.50;2.50;;;11.20;61.80;;;;;;5025472;28;20072;-75
2021/12/08 12:40:40;;;;;;;10.90;2.88;;;11.20;61.70;;;;;;5026818;28;20492;-74
2021/12/08 12:43:07;;;;;;;14.00;3.28;;;11.20;61.90;;;;;;5025362;28;20064;-74
2021/12/08 12:45:40;;;;;;;6.68;2.35;;;11.20;61.90;;;;;;5025681;28;20076;-73
2021/12/08 12:48:20;;;;;;;12.63;4.50;;;11.10;61.60;;;;;;5024620;28;20029;-73
2021/12/08 12:51:05;;;;;;;10.00;3.35;;;11.10;61.60;;;;;;5026509;28;20060;-73
2021/12/08 12:53:44;;;;;;;7.20;2.58;;;11.10;61.60;;;;;;5024963;28;20071;-73
2021/12/08 12:56:14;;;;;;;12.82;2.90;;;11.00;61.50;;;;;;5024617;28;20535;-74
2021/12/08 12:58:50;;;;;;;10.10;2.78;;;11.00;61.50;;;;;;5026310;28;20099;-74
2021/12/08 13:01:35;;;;;;;13.43;2.95;;;11.00;61.50;;;;;;5024657;28;20061;-73
2021/12/08 13:04:10;;;;;;;11.25;4.03;;;11.00;61.40;;;;;;5025535;28;20432;-73
2021/12/08 13:07:00;;;;;;;12.20;2.63;;;10.90;61.40;;;;;;5024973;28;20485;-75
2021/12/08 13:09:46;;;;;;;11.48;3.05;;;10.90;61.30;;;;;;5024349;28;20025;-73
2021/12/08 13:12:28;;;;;;;9.15;2.47;;;10.90;61.20;;;;;;5026420;28;20079;-73
2021/12/08 13:15:19;;;;;;;12.75;3.22;;;10.90;61.20;;;;;;5024839;28;20603;-73
2021/12/08 13:18:11;;;;;;;11.10;4.18;;;10.90;61.20;;;;;;5025873;28;20053;-75
2021/12/08 13:20:40;;;;;;;11.40;3.35;;;10.80;61.00;;;;;;5026262;28;20112;-73
2021/12/08 13:23:18;;;;;;;12.20;3.40;;;10.90;61.20;;;;;;5023363;28;20084;-74
2021/12/08 13:28:38;;;;;;;14.90;3.55;;;10.80;61.00;;;;;;5025716;28;20033;-72
2021/12/08 13:31:19;;;;;;;11.10;2.97;;;10.80;60.90;;;;;;5026129;28;20030;-72
2021/12/08 13:33:51;;;;;;;16.98;3.15;;;10.80;60.90;;;;;;5025647;28;20048;-74
2021/12/08 13:36:20;;;;;;;12.70;2.55;;;10.80;60.90;;;;;;5026332;28;20037;-74
2021/12/08 13:38:53;;;;;;;10.60;2.58;;;10.70;60.70;;;;;;5025029;28;20033;-73
2021/12/08 13:41:21;;;;;;;8.15;2.35;;;10.70;60.70;;;;;;5025200;28;20204;-74
2021/12/08 13:43:50;;;;;;;11.80;3.47;;;10.70;60.70;;;;;;5024695;28;20044;-74
2021/12/08 13:46:37;;;;;;;12.07;3.67;;;10.70;60.60;;;;;;5025691;28;20087;-75
2021/12/08 13:49:11;;;;;;;19.85;3.42;;;10.70;60.50;;;;;;5024297;28;20408;-73
2021/12/08 13:51:37;;;;;;;14.65;3.28;;;10.70;60.50;;;;;;5025556;28;20034;-75
2021/12/08 13:54:24;;;;;;;11.75;2.90;;;10.70;60.60;;;;;;5025412;28;20045;-74
2021/12/08 13:56:52;;;;;;;15.20;3.50;;;10.60;60.20;;;;;;5024665;28;20108;-76
2021/12/08 13:59:53;;;;;;;17.60;3.65;;;10.70;60.50;;;;;;5025994;28;20038;-74
2021/12/08 14:02:25;;;;;;;11.30;3.70;;;10.60;60.20;;;;;;5007732;28;20061;-74
2021/12/08 14:05:10;;;;;;;11.85;3.03;;;10.60;60.40;;;;;;5026476;28;20069;-73
2021/12/08 14:07:39;;;;;;;9.73;3.65;;;10.60;60.30;;;;;;5025571;28;20050;-73
2021/12/08 14:10:26;;;;;;;13.80;5.30;;;10.60;60.40;;;;;;5025145;28;20029;-74
2021/12/08 14:13:05;;;;;;;13.10;3.17;;;10.60;60.50;;;;;;5001163;28;20040;-75